Argora, Idaho
Current Conditions -  °F | °C
As of 1:53 AM on Sunday 26 Oct 2014 (Local Time) from KRXE Reporting Station
Overcast Overcast  
Wind Chill: 54°   Ceiling: 9000
Heat Index: 54°   Visibility: 10mi
Dew Point: 34°   Wind: 21mph
Humidity: 47%   Direction: 220°SW
Pressure: 29.89"   Gusts: 33mph
Location:  44.2396°N, 112.579°W
Report Text: KRXE 260753Z AUTO 22018G29KT 10SM OVC090 12/01 A2989 RMK AO2 PK WND 23029/0751 RAE09 SLP086 P0001 T01220011
Loading
Personal Weather Stations






























Interactive Weather Map
Tropical Storm Tracking
New forecast layout! Learn more

10-Day Weather Forecast

Advertisements
Track Severe Weather on mobile